createdAt,value
2023-02-01T00:01:42.598Z,13.05
2023-02-01T00:06:45.151Z,17.85
2023-02-01T00:11:49.464Z,11.40
2023-02-01T00:16:57.105Z,14.15
2023-02-01T00:21:59.584Z,8.27
2023-02-01T00:27:02.810Z,11.43
2023-02-01T00:32:06.839Z,13.70
2023-02-01T00:37:09.707Z,19.60
2023-02-01T00:42:12.342Z,12.55
2023-02-01T00:47:14.827Z,14.63
2023-02-01T00:52:17.250Z,15.40
2023-02-01T00:57:19.638Z,21.67
2023-02-01T01:02:23.538Z,27.67
2023-02-01T01:07:26.255Z,27.52
2023-02-01T01:12:28.911Z,27.77
2023-02-01T01:17:32.936Z,18.47
2023-02-01T01:22:35.355Z,17.92
2023-02-01T01:27:37.692Z,20.42
2023-02-01T01:32:40.404Z,14.98
2023-02-01T01:37:42.849Z,15.30
2023-02-01T01:42:46.642Z,13.20
2023-02-01T01:48:23.675Z,12.15
2023-02-01T01:53:35.269Z,17.70
2023-02-01T01:58:38.198Z,22.35
2023-02-01T02:03:44.444Z,18.73
2023-02-01T02:08:47.506Z,21.48
2023-02-01T02:13:53.559Z,15.30
2023-02-01T02:19:08.440Z,18.38
2023-02-01T02:24:36.110Z,21.88
2023-02-01T02:30:02.642Z,16.17
2023-02-01T02:35:35.515Z,20.35
2023-02-01T02:41:02.100Z,14.70
2023-02-01T02:46:35.411Z,25.67
2023-02-01T02:52:06.205Z,26.92
2023-02-01T02:57:30.882Z,19.13
2023-02-01T03:02:53.870Z,24.67
2023-02-01T03:08:03.538Z,11.68
2023-02-01T03:13:09.556Z,17.83
2023-02-01T03:18:17.455Z,18.83
2023-02-01T03:23:24.552Z,13.82
2023-02-01T03:28:29.768Z,14.05
2023-02-01T03:33:34.710Z,17.08
2023-02-01T03:38:42.993Z,18.23
2023-02-01T03:44:27.678Z,17.40
2023-02-01T03:49:37.229Z,13.60
2023-02-01T03:54:41.879Z,18.45
2023-02-01T03:59:46.208Z,16.25
2023-02-01T04:04:48.785Z,17.65
2023-02-01T04:09:53.994Z,21.35
2023-02-01T04:14:56.311Z,19.17
2023-02-01T04:19:59.913Z,19.15
2023-02-01T04:30:12.315Z,17.00
2023-02-01T04:35:15.937Z,21.55
2023-02-01T04:40:18.324Z,24.98
2023-02-01T04:45:20.664Z,20.15
2023-02-01T04:50:25.045Z,16.50
2023-02-01T04:55:27.513Z,13.80
2023-02-01T05:00:29.887Z,17.08
2023-02-01T05:05:33.621Z,21.23
2023-02-01T05:15:38.390Z,16.67
2023-02-01T05:20:40.821Z,21.40
2023-02-01T05:25:43.386Z,19.95
2023-02-01T05:30:45.664Z,20.63
2023-02-01T05:35:49.268Z,16.05
2023-02-01T05:40:52.633Z,15.98
2023-02-01T05:45:55.995Z,25.70
2023-02-01T05:50:58.519Z,18.17
2023-02-01T05:56:02.663Z,21.10
2023-02-01T06:01:05.573Z,20.02
2023-02-01T06:06:08.102Z,19.52
2023-02-01T06:11:13.375Z,22.00
2023-02-01T06:16:16.661Z,13.75
2023-02-01T06:21:24.810Z,21.27
2023-02-01T06:26:29.796Z,15.75
2023-02-01T06:31:34.088Z,18.95
2023-02-01T06:36:36.976Z,16.73
2023-02-01T06:41:42.773Z,18.97
2023-02-01T06:46:48.135Z,15.60
2023-02-01T06:51:50.819Z,21.48
2023-02-01T06:56:57.668Z,21.13
2023-02-01T07:02:02.009Z,21.90
2023-02-01T07:07:05.181Z,21.48
2023-02-01T07:12:07.928Z,25.40
2023-02-01T07:17:14.608Z,26.15
2023-02-01T07:22:18.054Z,31.70
2023-02-01T07:27:21.145Z,27.27
2023-02-01T07:32:25.003Z,24.45
2023-02-01T07:37:28.269Z,22.70
2023-02-01T07:42:30.627Z,20.45
2023-02-01T07:47:32.941Z,25.75
2023-02-01T07:52:35.487Z,21.23
2023-02-01T07:57:37.909Z,15.10
2023-02-01T08:02:40.285Z,23.95
2023-02-01T08:07:42.805Z,19.83
2023-02-01T08:12:48.840Z,14.63
2023-02-01T08:17:51.859Z,19.50
2023-02-01T08:22:54.837Z,23.10
2023-02-01T08:27:57.737Z,26.00
2023-02-01T08:33:00.159Z,28.60
2023-02-01T08:38:05.651Z,22.80
2023-02-01T08:43:08.621Z,23.52
2023-02-01T08:48:11.062Z,23.43
2023-02-01T08:53:15.230Z,17.13
2023-02-01T08:58:19.940Z,22.30
2023-02-01T09:03:22.416Z,22.42
2023-02-01T09:08:25.495Z,36.80
2023-02-01T09:13:28.516Z,42.53
2023-02-01T09:18:30.928Z,30.50
2023-02-01T09:23:35.228Z,27.52
2023-02-01T09:28:37.947Z,24.20
2023-02-01T09:33:41.417Z,19.67
2023-02-01T09:38:52.858Z,17.08
2023-02-01T09:44:04.555Z,21.70
2023-02-01T09:49:15.220Z,22.88
2023-02-01T09:54:20.862Z,27.63
2023-02-01T09:59:47.892Z,16.92
2023-02-01T10:04:50.982Z,17.15
2023-02-01T10:10:02.925Z,27.73
2023-02-01T10:15:42.846Z,25.77
2023-02-01T10:20:54.084Z,23.95
2023-02-01T10:26:01.260Z,32.17
2023-02-01T10:31:04.461Z,18.15
2023-02-01T10:36:42.183Z,11.52
2023-02-01T10:41:45.846Z,12.88
2023-02-01T10:51:55.750Z,9.68
2023-02-01T10:56:59.894Z,11.90
2023-02-01T11:02:17.170Z,8.40
2023-02-01T11:07:25.940Z,28.95
2023-02-01T11:12:35.616Z,12.07
2023-02-01T11:17:42.069Z,8.23
2023-02-01T11:22:49.361Z,44.47
2023-02-01T11:27:55.529Z,20.92
2023-02-01T11:32:58.967Z,16.52
2023-02-01T11:38:01.392Z,17.08
2023-02-01T11:43:19.133Z,14.30
2023-02-01T11:48:26.925Z,21.08
2023-02-01T11:54:00.643Z,27.98
2023-02-01T11:59:27.319Z,23.60
2023-02-01T12:04:41.881Z,16.55
2023-02-01T12:10:06.781Z,22.58
2023-02-01T12:15:56.779Z,19.30
2023-02-01T12:21:07.123Z,25.40
2023-02-01T12:26:31.478Z,22.42
2023-02-01T12:31:47.361Z,27.55
2023-02-01T12:37:10.319Z,31.88
2023-02-01T12:42:18.388Z,41.20
2023-02-01T12:47:34.192Z,67.38
2023-02-01T12:52:41.304Z,68.03
2023-02-01T12:58:19.341Z,41.38
2023-02-01T13:09:26.799Z,28.80
2023-02-01T13:14:47.964Z,35.78
2023-02-01T13:20:13.655Z,45.10
2023-02-01T13:25:42.585Z,43.13
2023-02-01T13:30:59.990Z,34.20
2023-02-01T13:36:16.377Z,23.17
2023-02-01T13:41:34.471Z,29.48
2023-02-01T13:46:46.503Z,24.80
2023-02-01T13:51:51.854Z,27.42
2023-02-01T13:56:54.504Z,17.25
2023-02-01T14:01:56.925Z,15.82
2023-02-01T14:06:59.609Z,24.70
2023-02-01T14:12:40.253Z,30.30
2023-02-01T14:17:42.767Z,20.13
2023-02-01T14:22:45.857Z,24.05
2023-02-01T14:27:48.205Z,23.17
2023-02-01T14:32:50.982Z,19.73
2023-02-01T14:38:13.333Z,30.40
2023-02-01T14:43:17.110Z,18.92
2023-02-01T14:48:35.501Z,21.55
2023-02-01T14:53:38.656Z,29.58
2023-02-01T14:58:45.217Z,30.85
2023-02-01T15:03:56.626Z,32.08
2023-02-01T15:09:07.511Z,23.80
2023-02-01T15:14:15.348Z,28.02
2023-02-01T15:19:17.655Z,64.32
2023-02-01T15:24:31.079Z,91.70
2023-02-01T15:29:34.548Z,92.03
2023-02-01T15:34:49.018Z,124.25
2023-02-01T15:40:25.248Z,93.45
2023-02-01T15:45:29.969Z,81.78
2023-02-01T15:50:33.220Z,48.78
2023-02-01T15:55:43.646Z,31.20
2023-02-01T16:01:00.271Z,36.63
2023-02-01T16:06:06.363Z,31.83
2023-02-01T16:11:08.690Z,31.15
2023-02-01T16:16:15.084Z,32.83
2023-02-01T16:21:17.941Z,53.28
2023-02-01T16:26:20.775Z,62.30
2023-02-01T16:31:28.336Z,69.27
2023-02-01T16:36:30.933Z,61.13
2023-02-01T16:41:34.587Z,59.05
2023-02-01T16:46:47.393Z,48.70
2023-02-01T16:51:51.055Z,39.13
2023-02-01T16:56:54.104Z,62.78
2023-02-01T17:01:56.540Z,130.70
2023-02-01T17:07:03.857Z,186.07
2023-02-01T17:12:06.855Z,117.13
2023-02-01T17:17:09.913Z,73.95
2023-02-01T17:22:14.840Z,58.92
2023-02-01T17:27:18.485Z,55.05
2023-02-01T17:37:28.487Z,34.95
2023-02-01T17:42:31.102Z,34.28
2023-02-01T17:47:34.165Z,41.47
2023-02-01T17:52:36.946Z,32.05
2023-02-01T17:57:42.303Z,32.13
2023-02-01T18:02:46.065Z,34.42
2023-02-01T18:07:49.496Z,23.13
2023-02-01T18:12:52.942Z,22.90
2023-02-01T18:18:01.825Z,22.13
2023-02-01T18:23:24.127Z,26.27
2023-02-01T18:28:26.746Z,26.65
2023-02-01T18:33:29.254Z,24.48
2023-02-01T18:38:33.738Z,28.15
2023-02-01T18:43:38.854Z,28.73
2023-02-01T18:48:42.928Z,33.38
2023-02-01T18:53:45.866Z,34.83
2023-02-01T18:58:48.655Z,26.50
2023-02-01T19:04:08.384Z,18.40
2023-02-01T19:09:17.695Z,20.50
2023-02-01T19:14:24.895Z,28.63
2023-02-01T19:19:30.589Z,33.33
2023-02-01T19:24:33.217Z,40.05
2023-02-01T19:29:37.642Z,28.27
2023-02-01T19:34:41.730Z,19.77
2023-02-01T19:39:50.302Z,14.05
2023-02-01T19:44:57.537Z,11.35
2023-02-01T19:50:01.981Z,7.15
2023-02-01T19:55:31.657Z,6.88
2023-02-01T20:00:36.811Z,6.40
2023-02-01T20:05:40.829Z,6.80
2023-02-01T20:10:49.853Z,10.10
2023-02-01T20:21:18.372Z,7.72
2023-02-01T20:26:25.006Z,17.75
2023-02-01T20:31:34.148Z,8.98
2023-02-01T20:36:36.586Z,6.55
2023-02-01T20:41:43.908Z,6.63
2023-02-01T20:46:48.777Z,9.18
2023-02-01T20:57:44.800Z,13.32
2023-02-01T21:02:48.879Z,11.57
2023-02-01T21:07:51.365Z,10.75
2023-02-01T21:13:04.777Z,11.80
2023-02-01T21:18:09.810Z,14.32
2023-02-01T21:23:12.962Z,14.77
2023-02-01T21:28:15.989Z,11.82
2023-02-01T21:34:08.034Z,8.88
2023-02-01T21:44:51.996Z,12.35
2023-02-01T21:49:57.236Z,20.80
2023-02-01T21:55:00.566Z,15.55
2023-02-01T22:00:13.357Z,17.90
2023-02-01T22:05:41.969Z,25.00
2023-02-01T22:10:44.316Z,24.45
2023-02-01T22:16:34.775Z,21.08
2023-02-01T22:21:39.262Z,25.98
2023-02-01T22:27:14.125Z,14.93
2023-02-01T22:32:21.336Z,24.15
2023-02-01T22:37:24.779Z,23.63
2023-02-01T22:42:37.140Z,21.27
2023-02-01T22:47:44.869Z,22.33
2023-02-01T22:52:52.700Z,19.95
2023-02-01T22:57:55.868Z,17.02
2023-02-01T23:03:01.350Z,15.73
2023-02-01T23:08:06.382Z,20.67
2023-02-01T23:13:10.782Z,18.05
2023-02-01T23:18:29.325Z,16.40
2023-02-01T23:23:36.224Z,22.73
2023-02-01T23:29:25.755Z,17.88
2023-02-01T23:34:33.366Z,17.85
2023-02-01T23:39:35.972Z,21.20
2023-02-01T23:44:39.398Z,21.33
2023-02-01T23:49:48.310Z,14.68
2023-02-01T23:54:50.591Z,14.75
2023-02-01T23:59:52.875Z,18.65
